createdAt,value
2016-08-22T00:02:03.516Z,14.6
2016-08-22T00:07:03.804Z,14.6
2016-08-22T00:12:03.420Z,14.6
2016-08-22T00:17:03.315Z,14.5
2016-08-22T00:22:03.243Z,14.5
2016-08-22T00:27:03.683Z,14.2
2016-08-22T00:32:03.095Z,14.2
2016-08-22T00:37:03.631Z,14.1
2016-08-22T00:42:03.334Z,14.0
2016-08-22T00:47:03.154Z,13.8
2016-08-22T00:52:03.126Z,13.8
2016-08-22T00:57:03.608Z,14.0
2016-08-22T01:02:03.357Z,13.8
2016-08-22T01:07:02.818Z,13.8
2016-08-22T01:12:03.669Z,13.7
2016-08-22T01:17:03.357Z,13.6
2016-08-22T01:22:03.767Z,13.7
2016-08-22T01:27:03.496Z,13.2
2016-08-22T01:32:03.889Z,13.3
2016-08-22T01:37:03.400Z,13.1
2016-08-22T01:42:03.800Z,12.9
2016-08-22T01:47:03.401Z,12.7
2016-08-22T01:52:03.645Z,12.6
2016-08-22T01:57:03.156Z,12.8
2016-08-22T02:02:03.878Z,12.7
2016-08-22T02:07:02.931Z,12.8
2016-08-22T02:12:03.264Z,12.7
2016-08-22T02:17:03.343Z,12.7
2016-08-22T02:22:03.796Z,12.7
2016-08-22T02:27:03.085Z,12.7
2016-08-22T02:32:03.555Z,12.6
2016-08-22T02:37:03.210Z,12.6
2016-08-22T02:42:03.487Z,12.6
2016-08-22T02:47:03.667Z,12.5
2016-08-22T02:52:03.078Z,12.6
2016-08-22T02:57:03.406Z,12.5
2016-08-22T03:02:03.578Z,12.6
2016-08-22T03:07:03.030Z,12.6
2016-08-22T03:12:03.466Z,12.6
2016-08-22T03:17:03.906Z,12.5
2016-08-22T03:22:03.134Z,12.5
2016-08-22T03:27:03.305Z,12.4
2016-08-22T03:32:03.698Z,12.2
2016-08-22T03:37:03.065Z,12.2
2016-08-22T03:42:03.408Z,12.2
2016-08-22T03:47:03.918Z,12.3
2016-08-22T03:52:03.675Z,12.3
2016-08-22T03:57:03.735Z,12.4
2016-08-22T04:02:18.125Z,12.3
2016-08-22T04:07:03.388Z,12.3
2016-08-22T04:12:03.822Z,12.3
2016-08-22T04:17:17.934Z,12.0
2016-08-22T04:22:03.018Z,11.9
2016-08-22T04:27:03.860Z,11.7
2016-08-22T04:32:17.138Z,11.6
2016-08-22T04:37:03.722Z,11.6
2016-08-22T04:42:02.915Z,11.5
2016-08-22T04:47:16.701Z,11.5
2016-08-22T04:52:03.429Z,11.7
2016-08-22T04:57:03.064Z,11.6
2016-08-22T05:02:21.216Z,11.9
2016-08-22T05:07:03.536Z,11.9
2016-08-22T05:12:03.405Z,11.9
2016-08-22T05:17:17.671Z,12.1
2016-08-22T05:22:03.312Z,12.5
2016-08-22T05:27:03.671Z,12.4
2016-08-22T05:32:17.216Z,12.9
2016-08-22T05:37:03.234Z,12.9
2016-08-22T05:42:04.052Z,13.1
2016-08-22T05:47:16.865Z,13.2
2016-08-22T05:52:03.362Z,13.2
2016-08-22T05:57:02.989Z,13.4
2016-08-22T06:02:20.752Z,13.4
2016-08-22T06:07:03.215Z,13.5
2016-08-22T06:12:03.049Z,13.6
2016-08-22T06:17:16.894Z,13.5
2016-08-22T06:22:02.985Z,13.8
2016-08-22T06:27:03.357Z,14.1
2016-08-22T06:32:17.433Z,14.5
2016-08-22T06:37:03.510Z,15.0
2016-08-22T06:42:02.906Z,15.5
2016-08-22T06:47:17.477Z,15.8
2016-08-22T06:52:03.156Z,15.8
2016-08-22T06:57:03.053Z,16.1
2016-08-22T07:02:21.414Z,16.1
2016-08-22T07:07:03.356Z,16.3
2016-08-22T07:12:03.065Z,17.1
2016-08-22T07:17:17.092Z,17.6
2016-08-22T07:22:03.292Z,18.0
2016-08-22T07:27:03.243Z,18.0
2016-08-22T07:32:21.076Z,18.4
2016-08-22T07:37:03.704Z,19.1
2016-08-22T07:42:02.894Z,19.1
2016-08-22T07:47:17.396Z,19.9
2016-08-22T07:52:03.003Z,19.9
2016-08-22T07:57:02.909Z,20.6
2016-08-22T08:02:27.298Z,21.0
2016-08-22T08:07:03.407Z,21.0
2016-08-22T08:12:03.704Z,21.8
2016-08-22T08:17:17.927Z,21.7
2016-08-22T08:22:03.082Z,22.4
2016-08-22T08:27:03.093Z,22.4
2016-08-22T08:37:03.525Z,23.5
2016-08-22T08:42:03.523Z,24.5
2016-08-22T08:47:23.493Z,25.0
2016-08-22T08:52:03.606Z,25.2
2016-08-22T08:57:03.034Z,24.9
2016-08-22T09:02:17.317Z,24.5
2016-08-22T09:07:03.155Z,23.9
2016-08-22T09:12:02.871Z,23.6
2016-08-22T09:17:17.104Z,23.6
2016-08-22T09:22:03.806Z,24.6
2016-08-22T09:27:03.328Z,25.0
2016-08-22T09:32:17.450Z,25.0
2016-08-22T09:37:03.239Z,25.5
2016-08-22T09:42:03.398Z,25.6
2016-08-22T09:47:22.049Z,25.1
2016-08-22T09:52:03.168Z,25.1
2016-08-22T09:57:03.359Z,24.9
2016-08-22T10:02:16.907Z,25.0
2016-08-22T10:07:03.627Z,24.8
2016-08-22T10:12:03.552Z,24.9
2016-08-22T10:17:22.009Z,24.9
2016-08-22T10:22:03.111Z,25.1
2016-08-22T10:27:03.006Z,25.4
2016-08-22T10:32:17.443Z,25.4
2016-08-22T10:37:03.945Z,25.4
2016-08-22T10:42:03.283Z,25.5
2016-08-22T10:47:16.758Z,25.7
2016-08-22T10:52:03.501Z,26.5
2016-08-22T10:57:03.622Z,26.4
2016-08-22T11:02:17.865Z,27.4
2016-08-22T11:07:03.288Z,27.4
2016-08-22T11:12:03.740Z,28.2
2016-08-22T11:17:16.909Z,29.7
2016-08-22T11:22:03.410Z,29.7
2016-08-22T11:27:03.503Z,30.1
2016-08-22T11:32:22.195Z,30.1
2016-08-22T11:37:02.989Z,29.9
2016-08-22T11:42:03.278Z,30.5
2016-08-22T11:47:18.125Z,30.5
2016-08-22T11:52:03.316Z,30.8
2016-08-22T11:57:03.395Z,29.1
2016-08-22T12:02:22.424Z,28.8
2016-08-22T12:07:03.634Z,29.1
2016-08-22T12:12:03.004Z,29.4
2016-08-22T12:17:27.681Z,29.4
2016-08-22T12:22:03.605Z,29.0
2016-08-22T12:27:03.545Z,29.7
2016-08-22T12:32:18.004Z,29.5
2016-08-22T12:37:02.859Z,29.4
2016-08-22T12:42:03.412Z,29.5
2016-08-22T12:47:16.362Z,29.5
2016-08-22T12:52:03.387Z,29.3
2016-08-22T12:57:03.456Z,29.3
2016-08-22T13:02:17.343Z,29.3
2016-08-22T13:07:03.659Z,29.2
2016-08-22T13:12:02.980Z,29.2
2016-08-22T13:17:16.814Z,28.5
2016-08-22T13:22:03.113Z,28.5
2016-08-22T13:27:03.677Z,28.0
2016-08-22T13:32:17.399Z,27.4
2016-08-22T13:37:03.797Z,27.1
2016-08-22T13:42:03.055Z,27.1
2016-08-22T13:47:20.331Z,26.7
2016-08-22T13:52:03.363Z,26.7
2016-08-22T13:57:03.065Z,26.8
2016-08-22T20:02:05.606Z,20.2
2016-08-22T20:07:03.207Z,20.1
2016-08-22T20:12:03.411Z,19.9
2016-08-22T20:17:03.952Z,19.8
2016-08-22T20:22:03.181Z,19.7
2016-08-22T20:27:03.320Z,19.6
2016-08-22T20:37:03.688Z,19.4
2016-08-22T20:42:03.325Z,19.3
2016-08-22T20:47:03.189Z,19.2
2016-08-22T20:52:03.608Z,19.2
2016-08-22T20:57:03.642Z,19.2
2016-08-22T21:02:03.404Z,19.1
2016-08-22T21:07:03.288Z,19.1
2016-08-22T21:12:03.572Z,19.1
2016-08-22T21:17:03.671Z,18.9
2016-08-22T21:22:03.097Z,18.8
2016-08-22T21:27:03.470Z,18.8
2016-08-22T21:32:03.121Z,18.6
2016-08-22T21:37:03.478Z,18.5
2016-08-22T21:42:03.289Z,18.4
2016-08-22T21:47:03.196Z,18.0
2016-08-22T21:52:03.085Z,18.0
2016-08-22T21:57:03.799Z,17.8
2016-08-22T22:02:03.451Z,17.4
2016-08-22T22:07:03.137Z,17.2
2016-08-22T22:12:03.570Z,17.3
2016-08-22T22:22:03.747Z,17.2
2016-08-22T22:27:03.583Z,17.1
2016-08-22T22:32:03.788Z,17.0
2016-08-22T22:37:03.307Z,16.9
2016-08-22T22:42:03.387Z,17.0
2016-08-22T22:47:03.782Z,17.0
2016-08-22T22:52:02.974Z,16.9
2016-08-22T22:57:03.183Z,16.8
2016-08-22T23:02:03.345Z,16.7
2016-08-22T23:07:03.488Z,16.6
2016-08-22T23:12:02.966Z,16.7
2016-08-22T23:17:03.397Z,16.6
2016-08-22T23:22:03.579Z,16.7
2016-08-22T23:27:03.742Z,16.6
2016-08-22T23:32:03.299Z,16.6
2016-08-22T23:37:03.579Z,16.5
2016-08-22T23:42:03.596Z,16.5
2016-08-22T23:47:03.023Z,16.5
2016-08-22T23:52:03.002Z,16.4
2016-08-22T23:57:03.233Z,16.4
